Joseph, Oregon
Current Conditions -  °F | °C
As of 5:15 PM on Saturday 20 Dec 2014 (Local Time) from KLGD Reporting Station
Overcast Overcast  
Wind Chill:   Ceiling: 4000
Heat Index:   Visibility: 6mi
Dew Point:   Wind: 12mph
Humidity: 75%   Direction: 180°S
Pressure: 29.77"   Gusts: 16mph
Location:  45.35°N, 117.23°W
Report Text: KLGD 210115Z AUTO 18010G14KT 6SM FEW024 SCT034 OVC040 04/00 A2977 RMK AO1 P0001
Loading
Personal Weather Stations






























Interactive Weather Map New forecast layout! Learn more

10-Day Weather Forecast

Advertisements
Track Severe Weather on mobile